createdAt,value
2022-08-20T00:02:09.725Z,97.20
2022-08-20T00:04:36.918Z,97.30
2022-08-20T00:07:06.682Z,97.30
2022-08-20T00:09:36.798Z,97.50
2022-08-20T00:12:05.606Z,97.40
2022-08-20T00:14:33.829Z,97.60
2022-08-20T00:17:01.139Z,97.60
2022-08-20T00:19:27.959Z,97.70
2022-08-20T00:21:56.470Z,97.80
2022-08-20T00:24:25.674Z,97.90
2022-08-20T00:26:52.860Z,97.90
2022-08-20T00:29:20.465Z,98.00
2022-08-20T00:31:50.097Z,98.00
2022-08-20T00:34:16.847Z,98.00
2022-08-20T00:36:43.749Z,98.00
2022-08-20T00:39:10.620Z,98.10
2022-08-20T00:41:38.642Z,98.10
2022-08-20T00:44:05.424Z,98.10
2022-08-20T00:46:32.589Z,98.20
2022-08-20T00:49:02.256Z,98.20
2022-08-20T00:51:41.952Z,98.10
2022-08-20T00:54:11.705Z,98.10
2022-08-20T00:56:38.694Z,98.10
2022-08-20T00:59:06.551Z,98.20
2022-08-20T01:01:34.567Z,98.10
2022-08-20T01:04:21.231Z,98.10
2022-08-20T01:06:48.619Z,98.10
2022-08-20T01:09:15.384Z,98.00
2022-08-20T01:11:42.552Z,98.00
2022-08-20T01:14:27.539Z,97.90
2022-08-20T01:16:58.256Z,97.90
2022-08-20T01:19:41.481Z,97.90
2022-08-20T01:22:28.190Z,97.80
2022-08-20T01:25:03.943Z,97.70
2022-08-20T01:27:30.964Z,97.70
2022-08-20T01:30:00.643Z,97.70
2022-08-20T01:32:32.897Z,97.70
2022-08-20T01:34:59.648Z,97.60
2022-08-20T01:37:31.576Z,97.60
2022-08-20T01:39:58.842Z,97.60
2022-08-20T01:42:36.386Z,97.60
2022-08-20T01:45:04.456Z,97.50
2022-08-20T01:47:38.314Z,97.50
2022-08-20T01:50:16.388Z,97.70
2022-08-20T01:52:48.832Z,97.40
2022-08-20T01:55:15.596Z,97.30
2022-08-20T01:57:42.365Z,97.30
2022-08-20T02:00:19.692Z,97.30
2022-08-20T02:02:47.007Z,97.20
2022-08-20T02:05:13.765Z,97.20
2022-08-20T02:07:40.533Z,97.50
2022-08-20T02:10:08.174Z,97.20
2022-08-20T02:12:35.273Z,97.10
2022-08-20T02:15:02.082Z,97.10
2022-08-20T02:17:29.378Z,97.10
2022-08-20T02:19:59.452Z,97.10
2022-08-20T02:22:44.226Z,97.00
2022-08-20T02:25:17.220Z,96.90
2022-08-20T02:27:45.870Z,96.90
2022-08-20T02:30:28.089Z,96.80
2022-08-20T02:32:56.365Z,96.80
2022-08-20T02:35:24.276Z,96.70
2022-08-20T02:37:51.343Z,96.60
2022-08-20T02:40:30.446Z,96.50
2022-08-20T02:42:58.544Z,96.60
2022-08-20T02:45:25.346Z,96.50
2022-08-20T02:47:53.987Z,96.50
2022-08-20T02:50:22.516Z,96.50
2022-08-20T02:52:51.933Z,96.60
2022-08-20T02:55:25.942Z,96.50
2022-08-20T02:57:56.087Z,96.50
2022-08-20T03:00:26.114Z,96.50
2022-08-20T03:02:52.923Z,96.50
2022-08-20T03:05:19.725Z,96.60
2022-08-20T03:07:48.112Z,96.70
2022-08-20T03:10:15.155Z,97.10
2022-08-20T03:12:42.115Z,96.90
2022-08-20T03:15:17.300Z,96.10
2022-08-20T03:17:44.859Z,95.50
2022-08-20T03:20:11.989Z,94.80
2022-08-20T03:22:38.717Z,94.50
2022-08-20T03:25:05.834Z,94.10
2022-08-20T03:27:36.260Z,93.90
2022-08-20T03:30:05.438Z,93.80
2022-08-20T03:32:32.261Z,93.50
2022-08-20T03:34:58.989Z,93.40
2022-08-20T03:37:25.707Z,93.20
2022-08-20T03:39:52.484Z,93.10
2022-08-20T03:42:19.244Z,93.10
2022-08-20T03:44:45.983Z,93.10
2022-08-20T03:47:12.700Z,93.10
2022-08-20T03:49:39.450Z,93.10
2022-08-20T03:52:06.253Z,93.00
2022-08-20T03:54:32.988Z,93.00
2022-08-20T03:57:00.794Z,92.90
2022-08-20T03:59:27.552Z,92.90
2022-08-20T04:01:54.753Z,92.90
2022-08-20T04:04:22.184Z,92.80
2022-08-20T04:06:49.004Z,92.80
2022-08-20T04:09:15.805Z,92.70
2022-08-20T04:11:42.573Z,92.60
2022-08-20T04:14:11.047Z,92.50
2022-08-20T04:16:39.449Z,92.40
2022-08-20T04:19:07.359Z,92.40
2022-08-20T04:21:34.899Z,92.40
2022-08-20T04:24:03.646Z,92.40
2022-08-20T04:26:30.535Z,92.40
2022-08-20T04:28:57.332Z,92.40
2022-08-20T04:31:25.617Z,92.40
2022-08-20T04:33:52.615Z,92.50
2022-08-20T04:36:19.530Z,92.50
2022-08-20T04:38:48.035Z,92.60
2022-08-20T04:41:22.360Z,92.50
2022-08-20T04:43:54.248Z,92.50
2022-08-20T04:46:21.878Z,92.40
2022-08-20T04:48:50.577Z,92.40
2022-08-20T04:51:23.432Z,92.50
2022-08-20T04:53:53.423Z,92.80
2022-08-20T04:56:23.609Z,92.50
2022-08-20T04:58:56.606Z,92.40
2022-08-20T05:01:26.563Z,92.70
2022-08-20T05:03:57.183Z,92.20
2022-08-20T05:06:26.043Z,92.20
2022-08-20T05:08:53.721Z,92.00
2022-08-20T05:11:34.221Z,92.10
2022-08-20T05:14:05.203Z,92.00
2022-08-20T05:16:37.566Z,91.90
2022-08-20T05:19:04.431Z,91.90
2022-08-20T05:21:31.203Z,91.90
2022-08-20T05:23:57.914Z,91.90
2022-08-20T05:26:27.565Z,91.70
2022-08-20T05:28:58.356Z,91.00
2022-08-20T05:31:33.322Z,90.40
2022-08-20T05:34:02.165Z,90.00
2022-08-20T05:36:28.979Z,89.60
2022-08-20T05:38:55.807Z,89.30
2022-08-20T05:41:28.462Z,88.80
2022-08-20T05:43:56.964Z,87.90
2022-08-20T05:46:23.706Z,87.90
2022-08-20T05:48:50.552Z,86.50
2022-08-20T05:51:17.603Z,85.50
2022-08-20T05:53:44.356Z,85.10
2022-08-20T05:56:11.394Z,84.50
2022-08-20T05:58:38.268Z,83.50
2022-08-20T06:01:05.356Z,82.50
2022-08-20T06:03:50.461Z,83.30
2022-08-20T06:06:20.671Z,84.40
2022-08-20T06:09:04.371Z,85.20
2022-08-20T06:11:35.104Z,86.10
2022-08-20T06:14:03.829Z,86.70
2022-08-20T06:16:30.693Z,87.40
2022-08-20T06:18:58.556Z,87.60
2022-08-20T06:21:25.695Z,87.80
2022-08-20T06:23:56.703Z,88.50
2022-08-20T06:26:30.155Z,89.40
2022-08-20T06:28:59.184Z,90.00
2022-08-20T06:31:27.462Z,89.70
2022-08-20T06:33:54.592Z,89.20
2022-08-20T06:36:21.350Z,89.40
2022-08-20T06:38:48.191Z,89.70
2022-08-20T06:41:15.018Z,90.00
2022-08-20T06:43:41.804Z,89.60
2022-08-20T06:46:08.591Z,89.80
2022-08-20T06:48:35.346Z,89.80
2022-08-20T06:51:02.163Z,89.80
2022-08-20T06:53:29.242Z,89.50
2022-08-20T06:55:56.851Z,88.00
2022-08-20T06:58:36.941Z,87.50
2022-08-20T07:01:10.801Z,86.80
2022-08-20T07:03:39.124Z,86.40
2022-08-20T07:06:06.452Z,86.20
2022-08-20T07:08:33.324Z,86.40
2022-08-20T07:11:00.102Z,86.40
2022-08-20T07:13:27.643Z,86.60
2022-08-20T07:15:55.011Z,87.10
2022-08-20T07:18:28.851Z,87.80
2022-08-20T07:20:57.645Z,88.30
2022-08-20T07:23:28.199Z,89.40
2022-08-20T07:25:55.804Z,89.80
2022-08-20T07:28:23.864Z,90.10
2022-08-20T07:31:13.313Z,90.10
2022-08-20T07:33:41.548Z,90.40
2022-08-20T07:36:08.560Z,90.30
2022-08-20T07:38:35.974Z,90.10
2022-08-20T07:41:13.145Z,89.80
2022-08-20T07:43:39.946Z,89.50
2022-08-20T07:46:10.078Z,88.70
2022-08-20T07:48:41.779Z,87.60
2022-08-20T07:51:09.564Z,86.00
2022-08-20T07:53:37.218Z,84.80
2022-08-20T07:56:05.969Z,84.10
2022-08-20T07:58:33.235Z,82.20
2022-08-20T08:01:00.609Z,80.30
2022-08-20T08:03:40.587Z,79.10
2022-08-20T08:06:17.285Z,78.00
2022-08-20T08:08:59.365Z,77.90
2022-08-20T08:11:29.755Z,78.50
2022-08-20T08:14:00.759Z,78.80
2022-08-20T08:16:33.832Z,79.10
2022-08-20T08:19:03.332Z,79.60
2022-08-20T08:21:33.268Z,79.90
2022-08-20T08:24:04.352Z,80.70
2022-08-20T08:26:34.868Z,80.00
2022-08-20T08:29:05.522Z,78.40
2022-08-20T08:31:41.876Z,78.40
2022-08-20T08:34:12.736Z,77.90
2022-08-20T08:36:39.708Z,77.20
2022-08-20T08:39:06.668Z,77.00
2022-08-20T08:41:41.942Z,77.20
2022-08-20T08:44:12.966Z,76.40
2022-08-20T08:46:43.964Z,76.80
2022-08-20T08:49:12.899Z,76.70
2022-08-20T08:51:46.390Z,76.20
2022-08-20T08:54:22.145Z,75.50
2022-08-20T08:56:50.413Z,75.40
2022-08-20T08:59:17.650Z,74.40
2022-08-20T09:01:57.310Z,73.90
2022-08-20T09:04:38.618Z,74.60
2022-08-20T09:07:07.576Z,75.00
2022-08-20T09:09:37.121Z,75.30
2022-08-20T09:12:08.510Z,75.90
2022-08-20T09:14:35.874Z,76.70
2022-08-20T09:17:02.771Z,76.80
2022-08-20T09:19:29.602Z,77.10
2022-08-20T09:21:56.432Z,77.00
2022-08-20T09:24:23.399Z,77.00
2022-08-20T09:26:50.281Z,77.10
2022-08-20T09:29:17.440Z,76.70
2022-08-20T09:31:44.216Z,76.30
2022-08-20T09:34:13.336Z,75.90
2022-08-20T09:36:40.176Z,75.50
2022-08-20T09:39:07.156Z,75.30
2022-08-20T09:41:34.535Z,75.50
2022-08-20T09:44:02.242Z,75.10
2022-08-20T09:46:29.100Z,74.80
2022-08-20T09:48:55.835Z,74.40
2022-08-20T09:51:22.595Z,74.20
2022-08-20T09:53:49.394Z,74.20
2022-08-20T09:56:16.224Z,74.10
2022-08-20T09:58:49.003Z,73.70
2022-08-20T10:01:16.126Z,72.00
2022-08-20T10:03:43.637Z,71.30
2022-08-20T10:06:11.335Z,70.90
2022-08-20T10:08:38.428Z,70.40
2022-08-20T10:11:05.301Z,68.40
2022-08-20T10:13:32.072Z,67.90
2022-08-20T10:15:58.825Z,67.40
2022-08-20T10:18:25.581Z,66.90
2022-08-20T10:20:52.337Z,66.30
2022-08-20T10:23:19.074Z,65.70
2022-08-20T10:25:45.842Z,65.00
2022-08-20T10:28:12.608Z,65.40
2022-08-20T10:30:39.440Z,65.30
2022-08-20T10:33:06.606Z,65.70
2022-08-20T10:35:33.346Z,65.80
2022-08-20T10:38:00.148Z,66.30
2022-08-20T10:40:26.968Z,65.50
2022-08-20T10:42:53.788Z,65.50
2022-08-20T10:45:20.537Z,65.50
2022-08-20T10:47:47.323Z,65.60
2022-08-20T10:50:15.677Z,66.00
2022-08-20T10:52:42.610Z,65.70
2022-08-20T10:55:09.880Z,65.10
2022-08-20T10:57:38.177Z,65.50
2022-08-20T11:00:06.989Z,66.40
2022-08-20T11:02:33.742Z,66.20
2022-08-20T11:05:00.543Z,66.10
2022-08-20T11:07:49.449Z,65.40
2022-08-20T11:10:19.530Z,65.30
2022-08-20T11:12:46.775Z,65.70
2022-08-20T11:15:14.268Z,66.10
2022-08-20T11:17:42.020Z,66.40
2022-08-20T11:20:10.525Z,66.50
2022-08-20T11:22:37.390Z,66.50
2022-08-20T11:25:05.594Z,66.20
2022-08-20T11:27:43.039Z,66.40
2022-08-20T11:30:11.955Z,66.70
2022-08-20T11:32:38.750Z,67.00
2022-08-20T11:35:24.386Z,67.60
2022-08-20T11:37:53.372Z,68.80
2022-08-20T11:40:20.471Z,69.20
2022-08-20T11:43:13.069Z,70.10
2022-08-20T11:45:37.418Z,70.40
2022-08-20T11:48:05.037Z,71.10
2022-08-20T11:50:31.859Z,71.20
2022-08-20T11:52:58.832Z,71.40
2022-08-20T11:55:29.924Z,72.00
2022-08-20T11:57:59.833Z,72.10
2022-08-20T12:00:32.008Z,72.30
2022-08-20T12:03:00.372Z,73.10
2022-08-20T12:05:29.497Z,74.40
2022-08-20T12:07:56.752Z,74.90
2022-08-20T12:10:26.072Z,75.50
2022-08-20T12:12:53.011Z,76.50
2022-08-20T12:15:20.127Z,77.10
2022-08-20T12:17:46.931Z,77.10
2022-08-20T12:20:14.942Z,77.50
2022-08-20T12:22:41.721Z,77.70
2022-08-20T12:25:09.209Z,77.90
2022-08-20T12:27:36.501Z,78.30
2022-08-20T12:30:12.473Z,78.30
2022-08-20T12:32:39.305Z,78.60
2022-08-20T12:35:06.829Z,78.50
2022-08-20T12:37:33.878Z,78.70
2022-08-20T12:40:01.440Z,79.00
2022-08-20T12:42:30.327Z,79.00
2022-08-20T12:44:57.990Z,79.10
2022-08-20T12:47:26.396Z,79.30
2022-08-20T12:50:13.603Z,79.70
2022-08-20T12:52:40.861Z,80.10
2022-08-20T12:55:08.699Z,80.20
2022-08-20T12:57:47.285Z,80.40
2022-08-20T13:00:15.387Z,81.20
2022-08-20T13:02:42.616Z,80.60
2022-08-20T13:05:09.827Z,80.70
2022-08-20T13:07:36.798Z,80.60
2022-08-20T13:10:04.538Z,80.20
2022-08-20T13:12:32.790Z,79.50
2022-08-20T13:14:59.642Z,79.20
2022-08-20T13:17:38.290Z,79.60
2022-08-20T13:20:07.704Z,79.90
2022-08-20T13:22:34.662Z,80.30
2022-08-20T13:25:01.437Z,80.40
2022-08-20T13:27:28.216Z,80.20
2022-08-20T13:29:58.641Z,80.60
2022-08-20T13:32:26.079Z,80.90
2022-08-20T13:34:52.891Z,81.80
2022-08-20T13:37:25.267Z,81.00
2022-08-20T13:39:53.291Z,81.10
2022-08-20T13:42:20.557Z,80.90
2022-08-20T13:44:47.928Z,81.10
2022-08-20T13:47:21.878Z,81.10
2022-08-20T13:49:49.408Z,81.30
2022-08-20T13:52:17.078Z,81.60
2022-08-20T13:54:49.597Z,81.60
2022-08-20T13:57:22.577Z,82.30
2022-08-20T13:59:54.253Z,81.80
2022-08-20T14:02:31.601Z,81.10
2022-08-20T14:05:18.557Z,79.80
2022-08-20T14:07:46.509Z,79.10
2022-08-20T14:10:15.939Z,78.50
2022-08-20T14:12:42.735Z,78.90
2022-08-20T14:15:10.347Z,79.20
2022-08-20T14:17:38.684Z,79.20
2022-08-20T14:20:08.842Z,78.80
2022-08-20T14:22:36.825Z,79.00
2022-08-20T14:25:08.146Z,79.30
2022-08-20T14:27:41.188Z,79.70
2022-08-20T14:30:11.214Z,80.10
2022-08-20T14:32:40.493Z,80.70
2022-08-20T14:35:09.044Z,81.60
2022-08-20T14:37:38.258Z,81.60
2022-08-20T14:43:01.671Z,82.60
2022-08-20T15:21:26.338Z,88.90
2022-08-20T15:23:58.299Z,90.00
2022-08-20T15:26:25.136Z,89.80
2022-08-20T15:28:52.128Z,90.00
2022-08-20T15:31:18.925Z,90.00
2022-08-20T15:33:45.658Z,90.20
2022-08-20T15:36:12.565Z,90.20
2022-08-20T15:38:39.351Z,90.50
2022-08-20T15:41:06.255Z,90.80
2022-08-20T15:43:40.509Z,91.00
2022-08-20T15:46:07.781Z,91.10
2022-08-20T15:48:46.226Z,91.50
2022-08-20T15:51:22.215Z,91.60
2022-08-20T15:53:58.891Z,91.90
2022-08-20T15:56:50.005Z,92.00
2022-08-20T15:59:46.463Z,92.00
2022-08-20T16:02:58.731Z,92.30
2022-08-20T16:05:49.988Z,92.50
2022-08-20T16:08:16.747Z,92.70
2022-08-20T16:11:12.575Z,92.80
2022-08-20T16:13:41.488Z,93.00
2022-08-20T16:16:22.409Z,93.10
2022-08-20T16:18:51.442Z,93.20
2022-08-20T16:21:26.765Z,93.30
2022-08-20T16:23:55.384Z,93.50
2022-08-20T16:26:51.981Z,93.30
2022-08-20T16:29:23.430Z,93.30
2022-08-20T16:31:58.515Z,93.40
2022-08-20T16:34:34.433Z,93.50
2022-08-20T16:37:31.266Z,93.50
2022-08-20T16:40:00.041Z,93.70
2022-08-20T16:42:31.246Z,93.70
2022-08-20T16:44:58.221Z,93.90
2022-08-20T16:47:36.478Z,94.00
2022-08-20T16:50:20.802Z,94.10
2022-08-20T16:52:48.171Z,94.20
2022-08-20T16:55:15.344Z,94.30
2022-08-20T16:57:47.947Z,94.30
2022-08-20T17:00:30.451Z,94.50
2022-08-20T17:03:01.437Z,94.70
2022-08-20T17:05:55.366Z,94.80
2022-08-20T17:08:35.789Z,95.00
2022-08-20T17:11:14.265Z,95.00
2022-08-20T17:13:51.672Z,95.30
2022-08-20T17:16:29.503Z,95.40
2022-08-20T17:19:12.080Z,95.50
2022-08-20T17:21:57.559Z,95.60
2022-08-20T17:24:37.742Z,95.60
2022-08-20T17:27:21.218Z,95.70
2022-08-20T17:30:08.506Z,95.80
2022-08-20T17:32:46.776Z,95.70
2022-08-20T17:35:32.653Z,95.60
2022-08-20T17:38:11.338Z,95.50
2022-08-20T17:40:46.593Z,95.30
2022-08-20T17:43:34.132Z,95.20
2022-08-20T17:46:07.667Z,95.10
2022-08-20T17:48:53.248Z,94.80
2022-08-20T17:51:37.803Z,94.60
2022-08-20T17:54:26.834Z,94.40
2022-08-20T17:57:05.237Z,94.30
2022-08-20T18:00:01.042Z,94.10
2022-08-20T18:02:33.746Z,94.10
2022-08-20T18:05:05.564Z,94.00
2022-08-20T18:07:46.502Z,94.00
2022-08-20T18:10:21.795Z,94.00
2022-08-20T18:13:10.835Z,94.00
2022-08-20T18:15:45.621Z,94.00
2022-08-20T18:18:36.655Z,94.10
2022-08-20T18:22:02.698Z,94.00
2022-08-20T18:24:45.077Z,94.00
2022-08-20T18:27:21.155Z,94.00
2022-08-20T18:30:07.518Z,94.00
2022-08-20T18:32:47.818Z,94.00
2022-08-20T18:35:29.048Z,94.00
2022-08-20T18:37:55.933Z,94.10
2022-08-20T18:40:34.467Z,94.00
2022-08-20T18:43:17.861Z,94.00
2022-08-20T18:45:52.827Z,94.00
2022-08-20T18:48:25.686Z,94.30
2022-08-20T18:50:58.761Z,94.00
2022-08-20T18:53:34.410Z,93.90
2022-08-20T18:56:12.805Z,94.00
2022-08-20T18:59:10.830Z,94.00
2022-08-20T19:01:51.787Z,94.10
2022-08-20T19:04:37.441Z,94.60
2022-08-20T19:07:15.110Z,94.10
2022-08-20T19:10:04.490Z,93.50
2022-08-20T19:13:00.222Z,93.20
2022-08-20T19:15:33.760Z,92.70
2022-08-20T19:18:17.780Z,92.30
2022-08-20T19:21:01.818Z,92.00
2022-08-20T19:23:33.488Z,92.20
2022-08-20T19:26:25.062Z,92.40
2022-08-20T19:29:05.611Z,92.70
2022-08-20T19:31:38.882Z,93.00
2022-08-20T19:34:29.695Z,93.10
2022-08-20T19:37:28.141Z,93.50
2022-08-20T19:39:54.443Z,93.50
2022-08-20T19:42:29.182Z,93.80
2022-08-20T19:45:16.138Z,94.00
2022-08-20T19:48:07.641Z,94.00
2022-08-20T19:50:56.301Z,94.20
2022-08-20T19:53:39.393Z,94.30
2022-08-20T19:56:23.688Z,94.40
2022-08-20T19:59:05.501Z,94.40
2022-08-20T20:01:35.883Z,94.50
2022-08-20T20:04:05.394Z,94.60
2022-08-20T20:06:39.139Z,94.60
2022-08-20T20:09:19.102Z,94.70
2022-08-20T20:12:20.860Z,94.60
2022-08-20T20:14:55.727Z,94.80
2022-08-20T20:17:27.980Z,94.80
2022-08-20T20:19:59.145Z,94.90
2022-08-20T20:22:31.969Z,95.10
2022-08-20T20:25:15.047Z,95.00
2022-08-20T20:27:51.360Z,94.90
2022-08-20T20:30:45.091Z,95.00
2022-08-20T20:33:45.572Z,95.10
2022-08-20T20:36:44.867Z,95.50
2022-08-20T20:39:31.963Z,96.20
2022-08-20T20:42:05.795Z,97.00
2022-08-20T20:44:47.236Z,97.20
2022-08-20T20:47:22.413Z,97.50
2022-08-20T20:50:02.245Z,97.80
2022-08-20T20:52:37.256Z,98.00
2022-08-20T20:55:17.008Z,98.10
2022-08-20T20:58:02.560Z,98.40
2022-08-20T21:00:42.375Z,98.50
2022-08-20T21:03:33.431Z,98.80
2022-08-20T21:06:12.320Z,99.20
2022-08-20T21:08:47.875Z,99.20
2022-08-20T21:11:20.876Z,99.40
2022-08-20T21:13:59.457Z,99.90
2022-08-20T21:16:35.028Z,99.90
2022-08-20T21:19:10.311Z,99.90
2022-08-20T21:21:52.428Z,99.90
2022-08-20T21:24:30.975Z,99.90
2022-08-20T21:27:04.015Z,99.90
2022-08-20T21:29:38.608Z,99.90
2022-08-20T21:32:18.753Z,99.90
2022-08-20T21:34:55.756Z,99.90
2022-08-20T21:37:39.848Z,99.90
2022-08-20T21:40:12.747Z,99.90
2022-08-20T21:42:44.920Z,99.90
2022-08-20T21:45:24.083Z,99.90
2022-08-20T21:48:06.611Z,99.90
2022-08-20T21:50:38.080Z,99.90
2022-08-20T21:53:12.536Z,99.90
2022-08-20T21:55:44.048Z,99.90
2022-08-20T21:58:23.081Z,99.90
2022-08-20T22:01:01.419Z,99.90
2022-08-20T22:03:31.329Z,99.90
2022-08-20T22:06:01.679Z,99.90
2022-08-20T22:08:35.275Z,99.90
2022-08-20T22:11:04.830Z,99.90
2022-08-20T22:13:34.326Z,99.90
2022-08-20T22:16:28.523Z,99.90
2022-08-20T22:19:06.884Z,99.90
2022-08-20T22:21:49.958Z,99.90
2022-08-20T22:24:27.444Z,99.90
2022-08-20T22:27:06.998Z,99.90
2022-08-20T22:29:54.560Z,99.90
2022-08-20T22:32:38.125Z,99.90
2022-08-20T22:35:36.353Z,99.90
2022-08-20T22:38:15.839Z,99.90
2022-08-20T22:40:56.939Z,99.90
2022-08-20T22:43:46.297Z,99.90
2022-08-20T22:46:48.787Z,99.90
2022-08-20T22:49:40.328Z,99.90
2022-08-20T22:52:19.415Z,99.90
2022-08-20T22:54:46.405Z,99.90
2022-08-20T22:57:20.337Z,99.90
2022-08-20T22:59:53.213Z,99.90
2022-08-20T23:02:22.821Z,99.90
2022-08-20T23:04:53.957Z,99.90
2022-08-20T23:07:24.723Z,99.90
2022-08-20T23:09:57.990Z,99.90
2022-08-20T23:12:34.745Z,99.90
2022-08-20T23:15:10.397Z,99.90
2022-08-20T23:17:46.572Z,99.90
2022-08-20T23:20:25.666Z,99.90
2022-08-20T23:22:57.710Z,99.90
2022-08-20T23:25:36.808Z,99.90
2022-08-20T23:28:15.471Z,99.90
2022-08-20T23:30:53.342Z,99.90
2022-08-20T23:33:33.867Z,99.90
2022-08-20T23:36:10.843Z,99.90
2022-08-20T23:38:49.348Z,99.90
2022-08-20T23:41:26.443Z,99.90
2022-08-20T23:43:59.964Z,99.90
2022-08-20T23:46:37.540Z,99.90
2022-08-20T23:49:12.380Z,99.90
2022-08-20T23:51:49.589Z,99.90
2022-08-20T23:54:23.761Z,99.90
2022-08-20T23:57:08.123Z,99.90
2022-08-20T23:59:41.493Z,99.90
